createdAt,value
2022-09-17T00:00:06.792Z,11.44
2022-09-17T00:01:06.793Z,11.42
2022-09-17T00:02:06.921Z,11.41
2022-09-17T00:03:06.858Z,11.39
2022-09-17T00:04:06.767Z,11.38
2022-09-17T00:05:06.766Z,11.36
2022-09-17T00:06:06.755Z,11.35
2022-09-17T00:07:06.706Z,11.35
2022-09-17T00:08:06.722Z,11.36
2022-09-17T00:09:06.705Z,11.33
2022-09-17T00:10:06.677Z,11.33
2022-09-17T00:11:06.693Z,11.33
2022-09-17T00:12:06.647Z,11.31
2022-09-17T00:13:06.646Z,11.33
2022-09-17T00:14:06.736Z,11.31
2022-09-17T00:15:06.614Z,11.28
2022-09-17T00:16:06.662Z,11.27
2022-09-17T00:17:06.568Z,11.27
2022-09-17T00:18:06.582Z,11.27
2022-09-17T00:19:06.590Z,11.27
2022-09-17T00:20:06.594Z,11.27
2022-09-17T00:21:06.562Z,11.26
2022-09-17T00:22:06.529Z,11.26
2022-09-17T00:23:06.527Z,11.24
2022-09-17T00:24:06.510Z,11.24
2022-09-17T00:25:06.499Z,11.23
2022-09-17T00:26:06.484Z,11.21
2022-09-17T00:27:06.492Z,11.20
2022-09-17T00:28:06.470Z,11.20
2022-09-17T00:29:06.443Z,11.20
2022-09-17T00:30:06.441Z,11.20
2022-09-17T00:31:06.480Z,11.20
2022-09-17T00:32:06.422Z,11.19
2022-09-17T00:33:06.391Z,11.19
2022-09-17T00:34:06.399Z,11.19
2022-09-17T00:35:06.353Z,11.17
2022-09-17T00:36:06.371Z,11.19
2022-09-17T00:37:06.343Z,11.16
2022-09-17T00:38:06.460Z,11.12
2022-09-17T00:39:06.312Z,11.13
2022-09-17T00:40:06.297Z,11.12
2022-09-17T00:41:06.284Z,11.11
2022-09-17T00:42:06.295Z,11.11
2022-09-17T00:43:06.245Z,11.09
2022-09-17T00:44:06.290Z,11.11
2022-09-17T00:45:06.237Z,11.09
2022-09-17T00:46:06.265Z,11.09
2022-09-17T00:47:06.281Z,11.09
2022-09-17T00:48:06.184Z,11.08
2022-09-17T00:49:06.198Z,11.09
2022-09-17T00:50:06.188Z,11.06
2022-09-17T00:51:06.169Z,11.06
2022-09-17T00:52:06.160Z,11.08
2022-09-17T00:53:06.136Z,11.08
2022-09-17T00:54:06.108Z,11.08
2022-09-17T00:55:06.109Z,11.08
2022-09-17T00:56:06.128Z,11.05
2022-09-17T00:57:06.081Z,11.06
2022-09-17T00:58:06.092Z,11.08
2022-09-17T00:59:06.071Z,11.06
2022-09-17T01:00:06.041Z,11.06
2022-09-17T01:01:06.105Z,11.03
2022-09-17T01:02:06.216Z,11.05
2022-09-17T01:03:06.051Z,11.05
2022-09-17T01:04:06.031Z,10.99
2022-09-17T01:05:06.013Z,10.94
2022-09-17T01:06:05.975Z,10.91
2022-09-17T01:07:05.980Z,10.88
2022-09-17T01:08:05.981Z,10.86
2022-09-17T01:09:05.942Z,10.83
2022-09-17T01:10:05.924Z,10.80
2022-09-17T01:11:05.913Z,10.81
2022-09-17T01:12:05.923Z,10.81
2022-09-17T01:13:05.885Z,10.81
2022-09-17T01:14:05.886Z,10.80
2022-09-17T01:15:05.885Z,10.78
2022-09-17T01:16:05.912Z,10.72
2022-09-17T01:17:05.855Z,10.70
2022-09-17T01:18:05.846Z,10.69
2022-09-17T01:19:05.916Z,10.63
2022-09-17T01:20:05.790Z,10.55
2022-09-17T01:21:05.802Z,10.52
2022-09-17T01:22:05.756Z,10.47
2022-09-17T01:23:05.767Z,10.44
2022-09-17T01:24:05.728Z,10.46
2022-09-17T01:25:05.805Z,10.47
2022-09-17T01:26:05.714Z,10.47
2022-09-17T01:27:05.718Z,10.49
2022-09-17T01:28:05.688Z,10.46
2022-09-17T01:29:05.688Z,10.42
2022-09-17T01:30:05.649Z,10.39
2022-09-17T01:31:05.746Z,10.36
2022-09-17T01:32:05.647Z,10.32
2022-09-17T01:33:05.619Z,10.31
2022-09-17T01:34:05.603Z,10.34
2022-09-17T01:35:05.621Z,10.32
2022-09-17T01:36:05.600Z,10.28
2022-09-17T01:37:05.614Z,10.25
2022-09-17T01:38:05.551Z,10.22
2022-09-17T01:39:05.542Z,10.22
2022-09-17T01:40:05.598Z,10.17
2022-09-17T01:41:05.547Z,10.18
2022-09-17T01:42:05.523Z,10.13
2022-09-17T01:43:05.535Z,10.14
2022-09-17T01:44:05.494Z,10.14
2022-09-17T01:45:05.493Z,10.13
2022-09-17T01:46:05.489Z,10.10
2022-09-17T01:47:05.463Z,10.11
2022-09-17T01:48:05.454Z,10.11
2022-09-17T01:49:05.484Z,10.13
2022-09-17T01:50:05.427Z,10.17
2022-09-17T01:51:05.397Z,10.17
2022-09-17T01:52:05.395Z,10.14
2022-09-17T01:53:05.375Z,10.11
2022-09-17T01:54:05.396Z,10.10
2022-09-17T01:55:05.346Z,10.11
2022-09-17T01:56:05.359Z,10.13
2022-09-17T01:57:05.322Z,10.13
2022-09-17T01:58:05.307Z,10.13
2022-09-17T01:59:05.295Z,10.16
2022-09-17T02:00:05.447Z,10.17
2022-09-17T02:01:05.334Z,10.14
2022-09-17T02:02:05.338Z,10.10
2022-09-17T02:03:05.281Z,10.10
2022-09-17T02:04:05.230Z,10.10
2022-09-17T02:05:05.231Z,10.07
2022-09-17T02:06:05.251Z,10.06
2022-09-17T02:07:05.236Z,10.02
2022-09-17T02:08:05.183Z,10.04
2022-09-17T02:09:05.201Z,10.01
2022-09-17T02:10:05.160Z,9.95
2022-09-17T02:11:05.168Z,9.98
2022-09-17T02:12:05.250Z,9.98
2022-09-17T02:13:05.122Z,9.99
2022-09-17T02:14:05.113Z,9.98
2022-09-17T02:15:05.120Z,9.93
2022-09-17T02:16:05.147Z,9.91
2022-09-17T02:17:05.084Z,9.92
2022-09-17T02:18:05.101Z,9.91
2022-09-17T02:19:05.057Z,9.95
2022-09-17T02:20:05.052Z,9.96
2022-09-17T02:21:05.030Z,9.96
2022-09-17T02:22:05.014Z,9.93
2022-09-17T02:23:05.006Z,9.93
2022-09-17T02:24:05.093Z,9.92
2022-09-17T02:25:04.974Z,9.91
2022-09-17T02:26:04.964Z,9.88
2022-09-17T02:27:04.954Z,9.95
2022-09-17T02:28:04.954Z,9.96
2022-09-17T02:29:04.925Z,9.93
2022-09-17T02:30:04.981Z,9.92
2022-09-17T02:31:04.919Z,9.92
2022-09-17T02:32:04.896Z,9.88
2022-09-17T02:33:04.879Z,9.83
2022-09-17T02:34:04.919Z,9.77
2022-09-17T02:35:04.837Z,9.71
2022-09-17T02:36:04.927Z,9.71
2022-09-17T02:37:04.837Z,9.71
2022-09-17T02:38:04.808Z,9.78
2022-09-17T02:39:04.818Z,9.83
2022-09-17T02:40:04.850Z,9.78
2022-09-17T02:41:04.775Z,9.74
2022-09-17T02:42:04.749Z,9.71
2022-09-17T02:43:04.739Z,9.71
2022-09-17T02:44:07.411Z,9.75
2022-09-17T02:45:04.730Z,9.74
2022-09-17T02:46:04.713Z,9.73
2022-09-17T02:47:04.722Z,9.68
2022-09-17T02:48:04.693Z,9.71
2022-09-17T02:49:04.682Z,9.65
2022-09-17T02:50:04.676Z,9.65
2022-09-17T02:51:04.652Z,9.65
2022-09-17T02:52:04.632Z,9.62
2022-09-17T02:53:04.635Z,9.60
2022-09-17T02:54:04.614Z,9.60
2022-09-17T02:55:04.614Z,9.65
2022-09-17T02:56:04.592Z,9.67
2022-09-17T02:57:04.565Z,9.71
2022-09-17T02:58:04.562Z,9.68
2022-09-17T02:59:04.574Z,9.70
2022-09-17T03:00:04.534Z,9.68
2022-09-17T03:01:04.652Z,9.74
2022-09-17T03:02:04.559Z,9.73
2022-09-17T03:03:04.495Z,9.73
2022-09-17T03:04:04.514Z,9.71
2022-09-17T03:05:04.505Z,9.70
2022-09-17T03:06:04.496Z,9.74
2022-09-17T03:07:04.477Z,9.74
2022-09-17T03:08:04.445Z,9.74
2022-09-17T03:09:04.419Z,9.75
2022-09-17T03:10:04.427Z,9.73
2022-09-17T03:11:04.504Z,9.73
2022-09-17T03:12:04.417Z,9.73
2022-09-17T03:13:04.406Z,9.68
2022-09-17T03:14:04.378Z,9.62
2022-09-17T03:15:04.389Z,9.62
2022-09-17T03:16:04.448Z,9.67
2022-09-17T03:17:04.429Z,9.63
2022-09-17T03:18:04.329Z,9.60
2022-09-17T03:19:04.347Z,9.60
2022-09-17T03:20:04.321Z,9.59
2022-09-17T03:21:04.267Z,9.59
2022-09-17T03:22:04.269Z,9.52
2022-09-17T03:23:04.370Z,9.52
2022-09-17T03:24:04.240Z,9.53
2022-09-17T03:25:04.231Z,9.58
2022-09-17T03:26:04.201Z,9.63
2022-09-17T03:27:04.241Z,9.60
2022-09-17T03:28:04.191Z,9.59
2022-09-17T03:29:04.180Z,9.55
2022-09-17T03:30:04.180Z,9.53
2022-09-17T03:31:04.242Z,9.50
2022-09-17T03:32:04.153Z,9.52
2022-09-17T03:33:04.113Z,9.50
2022-09-17T03:34:04.102Z,9.62
2022-09-17T03:35:04.126Z,9.62
2022-09-17T03:36:04.106Z,9.56
2022-09-17T03:37:04.125Z,9.52
2022-09-17T03:38:04.055Z,9.49
2022-09-17T03:39:04.060Z,9.44
2022-09-17T03:40:04.117Z,9.41
2022-09-17T03:41:04.125Z,9.38
2022-09-17T03:42:04.013Z,9.35
2022-09-17T03:43:04.011Z,9.34
2022-09-17T03:44:04.122Z,9.32
2022-09-17T03:45:04.049Z,9.37
2022-09-17T03:46:04.052Z,9.40
2022-09-17T03:47:03.978Z,9.41
2022-09-17T03:48:03.937Z,9.38
2022-09-17T03:49:03.926Z,9.44
2022-09-17T03:50:03.951Z,9.44
2022-09-17T03:51:03.909Z,9.42
2022-09-17T03:52:04.018Z,9.38
2022-09-17T03:53:03.877Z,9.34
2022-09-17T03:54:03.857Z,9.37
2022-09-17T03:55:03.860Z,9.38
2022-09-17T03:56:03.859Z,9.35
2022-09-17T03:57:03.839Z,9.38
2022-09-17T03:58:03.867Z,9.40
2022-09-17T03:59:03.791Z,9.40
2022-09-17T04:00:03.819Z,9.40
2022-09-17T04:01:03.790Z,9.50
2022-09-17T04:02:03.844Z,9.48
2022-09-17T04:03:03.751Z,9.42
2022-09-17T04:04:03.793Z,9.38
2022-09-17T04:05:03.721Z,9.34
2022-09-17T04:06:03.747Z,9.32
2022-09-17T04:07:03.743Z,9.26
2022-09-17T04:08:03.715Z,9.26
2022-09-17T04:09:03.704Z,9.31
2022-09-17T04:10:03.776Z,9.31
2022-09-17T04:11:03.633Z,9.30
2022-09-17T04:12:03.633Z,9.27
2022-09-17T04:13:03.669Z,9.26
2022-09-17T04:14:03.609Z,9.26
2022-09-17T04:15:03.604Z,9.23
2022-09-17T04:16:03.759Z,9.23
2022-09-17T04:17:03.573Z,9.27
2022-09-17T04:18:03.604Z,9.31
2022-09-17T04:19:03.690Z,9.27
2022-09-17T04:20:03.575Z,9.27
2022-09-17T04:21:03.508Z,9.27
2022-09-17T04:22:03.530Z,9.31
2022-09-17T04:23:03.486Z,9.27
2022-09-17T04:24:03.498Z,9.26
2022-09-17T04:25:03.506Z,9.26
2022-09-17T04:26:03.469Z,9.26
2022-09-17T04:27:03.448Z,9.34
2022-09-17T04:28:03.474Z,9.40
2022-09-17T04:29:03.426Z,9.38
2022-09-17T04:30:03.398Z,9.40
2022-09-17T04:31:03.406Z,9.41
2022-09-17T04:32:03.401Z,9.44
2022-09-17T04:33:03.359Z,9.45
2022-09-17T04:34:03.409Z,9.42
2022-09-17T04:35:03.384Z,9.40
2022-09-17T04:36:03.356Z,9.42
2022-09-17T04:37:03.322Z,9.38
2022-09-17T04:38:03.320Z,9.32
2022-09-17T04:39:03.280Z,9.32
2022-09-17T04:40:07.511Z,9.37
2022-09-17T04:41:03.251Z,9.44
2022-09-17T04:42:03.262Z,9.50
2022-09-17T04:43:03.293Z,9.53
2022-09-17T04:44:03.222Z,9.50
2022-09-17T04:45:03.202Z,9.45
2022-09-17T04:46:03.301Z,9.40
2022-09-17T04:47:03.192Z,9.38
2022-09-17T04:48:03.177Z,9.34
2022-09-17T04:49:03.193Z,9.30
2022-09-17T04:50:03.205Z,9.26
2022-09-17T04:51:03.131Z,9.31
2022-09-17T04:52:03.172Z,9.32
2022-09-17T04:53:03.095Z,9.30
2022-09-17T04:54:03.113Z,9.34
2022-09-17T04:55:03.105Z,9.34
2022-09-17T04:56:03.095Z,9.31
2022-09-17T04:57:03.067Z,9.27
2022-09-17T04:58:03.176Z,9.23
2022-09-17T04:59:03.046Z,9.27
2022-09-17T05:00:03.056Z,9.26
2022-09-17T05:01:03.086Z,9.22
2022-09-17T05:02:03.048Z,9.20
2022-09-17T05:03:03.006Z,9.17
2022-09-17T05:04:03.079Z,9.13
2022-09-17T05:05:02.982Z,9.12
2022-09-17T05:06:02.970Z,9.10
2022-09-17T05:07:03.021Z,9.08
2022-09-17T05:08:03.027Z,9.06
2022-09-17T05:09:02.938Z,9.08
2022-09-17T05:10:02.918Z,9.08
2022-09-17T05:11:02.945Z,9.12
2022-09-17T05:12:02.843Z,9.15
2022-09-17T05:13:02.843Z,9.17
2022-09-17T05:14:02.840Z,9.22
2022-09-17T05:15:02.848Z,9.23
2022-09-17T05:16:02.910Z,9.31
2022-09-17T05:17:02.849Z,9.38
2022-09-17T05:18:02.820Z,9.38
2022-09-17T05:19:02.751Z,9.37
2022-09-17T05:20:02.776Z,9.40
2022-09-17T05:21:02.752Z,9.40
2022-09-17T05:22:02.925Z,9.40
2022-09-17T05:23:02.782Z,9.41
2022-09-17T05:24:02.815Z,9.40
2022-09-17T05:25:02.728Z,9.44
2022-09-17T05:26:02.974Z,9.48
2022-09-17T05:27:02.754Z,9.44
2022-09-17T05:28:02.924Z,9.40
2022-09-17T05:29:02.673Z,9.38
2022-09-17T05:30:02.780Z,9.44
2022-09-17T05:31:02.693Z,9.52
2022-09-17T05:32:02.725Z,9.52
2022-09-17T05:33:02.685Z,9.49
2022-09-17T05:34:02.714Z,9.48
2022-09-17T05:35:05.584Z,9.49
2022-09-17T05:36:02.693Z,9.50
2022-09-17T05:37:02.546Z,9.49
2022-09-17T05:38:02.597Z,9.50
2022-09-17T05:39:02.517Z,9.53
2022-09-17T05:40:02.748Z,9.53
2022-09-17T05:41:02.527Z,9.53
2022-09-17T05:42:02.538Z,9.59
2022-09-17T05:43:02.586Z,9.67
2022-09-17T05:44:02.538Z,9.68
2022-09-17T05:45:02.509Z,9.71
2022-09-17T05:46:02.488Z,9.70
2022-09-17T05:47:02.441Z,9.67
2022-09-17T05:48:02.409Z,9.63
2022-09-17T05:49:02.431Z,9.60
2022-09-17T05:50:02.513Z,9.58
2022-09-17T05:51:02.402Z,9.55
2022-09-17T05:52:02.522Z,9.58
2022-09-17T05:53:02.410Z,9.60
2022-09-17T05:54:02.323Z,9.60
2022-09-17T05:55:02.432Z,9.62
2022-09-17T05:56:02.311Z,9.60
2022-09-17T05:57:02.411Z,9.63
2022-09-17T05:58:02.432Z,9.65
2022-09-17T05:59:02.309Z,9.62
2022-09-17T06:00:02.404Z,9.62
2022-09-17T06:01:02.234Z,9.63
2022-09-17T06:02:02.283Z,9.67
2022-09-17T06:03:02.253Z,9.70
2022-09-17T06:04:02.396Z,9.70
2022-09-17T06:05:02.305Z,9.71
2022-09-17T06:06:02.194Z,9.74
2022-09-17T06:07:02.225Z,9.80
2022-09-17T06:08:02.148Z,9.80
2022-09-17T06:09:02.145Z,9.83
2022-09-17T06:10:02.162Z,9.86
2022-09-17T06:11:02.699Z,9.88
2022-09-17T06:12:02.137Z,9.86
2022-09-17T06:13:02.179Z,9.86
2022-09-17T06:14:02.181Z,9.89
2022-09-17T06:15:02.089Z,9.92
2022-09-17T06:16:02.312Z,9.96
2022-09-17T06:17:02.067Z,9.93
2022-09-17T06:18:02.089Z,9.95
2022-09-17T06:19:02.066Z,10.01
2022-09-17T06:20:02.148Z,10.09
2022-09-17T06:21:02.018Z,10.11
2022-09-17T06:22:02.232Z,10.18
2022-09-17T06:23:01.990Z,10.25
2022-09-17T06:24:01.972Z,10.29
2022-09-17T06:25:01.960Z,10.34
2022-09-17T06:26:01.990Z,10.36
2022-09-17T06:27:01.962Z,10.43
2022-09-17T06:28:01.981Z,10.51
2022-09-17T06:29:01.881Z,10.58
2022-09-17T06:30:01.861Z,10.68
2022-09-17T06:31:01.869Z,10.76
2022-09-17T06:32:01.850Z,10.83
2022-09-17T06:33:01.822Z,10.90
2022-09-17T06:34:01.961Z,10.99
2022-09-17T06:35:01.806Z,11.06
2022-09-17T06:36:01.853Z,11.12
2022-09-17T06:37:01.772Z,11.13
2022-09-17T06:38:01.774Z,11.23
2022-09-17T06:39:01.767Z,11.23
2022-09-17T06:40:01.909Z,11.27
2022-09-17T06:41:01.754Z,11.27
2022-09-17T06:42:01.715Z,11.27
2022-09-17T06:43:01.710Z,11.26
2022-09-17T06:44:01.696Z,11.26
2022-09-17T06:45:06.959Z,11.26
2022-09-17T06:46:02.716Z,11.20
2022-09-17T06:47:01.702Z,11.19
2022-09-17T06:48:01.666Z,11.16
2022-09-17T06:49:01.627Z,11.19
2022-09-17T06:50:01.628Z,11.20
2022-09-17T06:51:01.598Z,11.23
2022-09-17T06:52:01.628Z,11.31
2022-09-17T06:53:01.730Z,11.36
2022-09-17T06:54:08.554Z,11.46
2022-09-17T06:55:01.534Z,11.51
2022-09-17T06:56:06.258Z,11.53
2022-09-17T06:57:02.533Z,11.54
2022-09-17T06:58:01.494Z,11.56
2022-09-17T06:59:01.483Z,11.59
2022-09-17T07:00:01.466Z,11.54
2022-09-17T07:01:01.552Z,11.54
2022-09-17T07:02:01.563Z,11.57
2022-09-17T07:03:01.478Z,11.59
2022-09-17T07:04:01.417Z,11.56
2022-09-17T07:05:01.406Z,11.57
2022-09-17T07:06:01.399Z,11.57
2022-09-17T07:07:01.377Z,11.57
2022-09-17T07:08:01.375Z,11.60
2022-09-17T07:09:01.460Z,11.66
2022-09-17T07:10:01.348Z,11.66
2022-09-17T07:11:01.329Z,11.69
2022-09-17T07:12:01.321Z,11.74
2022-09-17T07:13:01.301Z,11.77
2022-09-17T07:14:01.292Z,11.79
2022-09-17T07:15:01.401Z,11.81
2022-09-17T07:16:01.337Z,11.82
2022-09-17T07:17:01.251Z,11.87
2022-09-17T07:18:01.244Z,11.93
2022-09-17T07:19:01.233Z,11.97
2022-09-17T07:20:01.221Z,12.00
2022-09-17T07:21:01.322Z,12.03
2022-09-17T07:22:01.192Z,12.05
2022-09-17T07:23:01.172Z,12.12
2022-09-17T07:24:01.164Z,12.15
2022-09-17T07:25:01.153Z,12.16
2022-09-17T07:26:01.142Z,12.16
2022-09-17T07:27:01.143Z,12.26
2022-09-17T07:28:01.115Z,12.29
2022-09-17T07:29:01.201Z,12.30
2022-09-17T07:30:01.095Z,12.37
2022-09-17T07:31:01.118Z,12.38
2022-09-17T07:32:01.065Z,12.34
2022-09-17T07:33:01.156Z,12.34
2022-09-17T07:34:01.036Z,12.36
2022-09-17T07:35:01.018Z,12.41
2022-09-17T07:36:01.017Z,12.48
2022-09-17T07:37:00.998Z,12.54
2022-09-17T07:38:00.989Z,12.51
2022-09-17T07:39:01.007Z,12.49
2022-09-17T07:40:01.005Z,12.58
2022-09-17T07:41:00.947Z,12.62
2022-09-17T07:42:00.937Z,12.61
2022-09-17T07:43:00.920Z,12.63
2022-09-17T07:44:00.970Z,12.63
2022-09-17T07:45:02.121Z,12.62
2022-09-17T07:46:00.890Z,12.59
2022-09-17T07:47:00.946Z,12.62
2022-09-17T07:48:00.861Z,12.66
2022-09-17T07:49:00.851Z,12.69
2022-09-17T07:50:00.841Z,12.67
2022-09-17T07:51:00.862Z,12.71
2022-09-17T07:52:00.810Z,12.80
2022-09-17T07:53:00.799Z,12.88
2022-09-17T07:54:00.789Z,12.92
2022-09-17T07:55:00.773Z,12.94
2022-09-17T07:56:00.754Z,12.99
2022-09-17T07:57:00.772Z,13.09
2022-09-17T07:58:00.734Z,13.07
2022-09-17T07:59:00.773Z,13.09
2022-09-17T08:00:00.704Z,13.10
2022-09-17T08:01:00.762Z,13.22
2022-09-17T08:02:00.785Z,13.25
2022-09-17T08:03:00.808Z,13.29
2022-09-17T08:04:00.661Z,13.38
2022-09-17T08:05:00.646Z,13.43
2022-09-17T08:06:00.638Z,13.48
2022-09-17T08:07:00.621Z,13.46
2022-09-17T08:08:00.609Z,13.32
2022-09-17T08:09:00.628Z,13.39
2022-09-17T08:10:00.577Z,13.39
2022-09-17T08:11:00.576Z,13.38
2022-09-17T08:12:00.558Z,13.50
2022-09-17T08:13:00.551Z,13.47
2022-09-17T08:14:00.536Z,13.50
2022-09-17T08:15:00.554Z,13.59
2022-09-17T08:16:00.557Z,13.55
2022-09-17T08:17:00.499Z,13.61
2022-09-17T08:18:00.489Z,13.62
2022-09-17T08:19:00.469Z,13.65
2022-09-17T08:20:00.453Z,13.69
2022-09-17T08:21:00.481Z,13.75
2022-09-17T08:22:00.432Z,13.83
2022-09-17T08:23:00.422Z,13.86
2022-09-17T08:24:00.403Z,14.01
2022-09-17T08:25:00.392Z,14.04
2022-09-17T08:26:00.384Z,14.11
2022-09-17T08:27:00.393Z,14.20
2022-09-17T08:28:00.353Z,14.26
2022-09-17T08:29:00.343Z,14.21
2022-09-17T08:30:00.336Z,14.04
2022-09-17T08:31:00.412Z,14.04
2022-09-17T08:32:00.306Z,13.96
2022-09-17T08:33:00.414Z,14.09
2022-09-17T08:34:00.275Z,14.23
2022-09-17T08:35:00.276Z,14.38
2022-09-17T08:36:00.256Z,14.44
2022-09-17T08:37:00.246Z,14.53
2022-09-17T08:38:00.227Z,14.38
2022-09-17T08:39:00.266Z,14.35
2022-09-17T08:40:00.242Z,14.31
2022-09-17T08:41:00.198Z,14.36
2022-09-17T08:42:00.177Z,14.39
2022-09-17T08:43:00.169Z,14.44
2022-09-17T08:44:00.282Z,14.56
2022-09-17T08:45:00.957Z,14.75
2022-09-17T08:46:00.175Z,14.79
2022-09-17T08:47:00.239Z,14.75
2022-09-17T08:48:00.119Z,14.67
2022-09-17T08:49:00.107Z,14.52
2022-09-17T08:50:00.113Z,14.45
2022-09-17T08:51:04.285Z,14.59
2022-09-17T08:52:01.055Z,14.64
2022-09-17T08:53:00.042Z,14.66
2022-09-17T08:54:00.022Z,14.69
2022-09-17T08:55:00.015Z,14.66
2022-09-17T08:56:00.003Z,14.53
2022-09-17T08:57:00.016Z,14.59
2022-09-17T08:57:59.976Z,14.78
2022-09-17T08:58:59.994Z,14.75
2022-09-17T08:59:59.944Z,14.85
2022-09-17T09:00:59.938Z,14.95
2022-09-17T09:02:00.045Z,14.74
2022-09-17T09:03:00.132Z,14.60
2022-09-17T09:03:59.906Z,14.63
2022-09-17T09:04:59.890Z,14.61
2022-09-17T09:05:59.876Z,14.75
2022-09-17T09:06:59.866Z,14.87
2022-09-17T09:07:59.847Z,14.93
2022-09-17T09:08:59.858Z,14.94
2022-09-17T09:09:59.830Z,14.95
2022-09-17T09:10:59.809Z,14.83
2022-09-17T09:11:59.800Z,14.94
2022-09-17T09:12:59.791Z,15.11
2022-09-17T09:13:59.826Z,15.34
2022-09-17T09:14:59.791Z,15.35
2022-09-17T09:15:59.798Z,15.48
2022-09-17T09:16:59.740Z,15.56
2022-09-17T09:17:59.722Z,15.51
2022-09-17T09:18:59.713Z,15.51
2022-09-17T09:19:59.692Z,15.56
2022-09-17T09:20:59.703Z,15.20
2022-09-17T09:21:59.674Z,15.16
2022-09-17T09:22:59.661Z,15.31
2022-09-17T09:23:59.703Z,15.43
2022-09-17T09:24:59.634Z,15.49
2022-09-17T09:25:59.615Z,15.48
2022-09-17T09:26:59.641Z,15.25
2022-09-17T09:27:59.595Z,15.38
2022-09-17T09:28:59.603Z,15.52
2022-09-17T09:29:59.566Z,15.73
2022-09-17T09:30:59.578Z,15.56
2022-09-17T09:31:59.546Z,15.58
2022-09-17T09:32:59.547Z,15.60
2022-09-17T09:33:59.517Z,15.60
2022-09-17T09:34:59.535Z,15.74
2022-09-17T09:35:59.487Z,15.84
2022-09-17T09:36:59.478Z,15.93
2022-09-17T09:37:59.467Z,16.01
2022-09-17T09:38:59.478Z,16.17
2022-09-17T09:39:59.506Z,15.88
2022-09-17T09:40:59.429Z,15.93
2022-09-17T09:41:59.418Z,16.18
2022-09-17T09:42:59.400Z,16.29
2022-09-17T09:44:04.091Z,16.40
2022-09-17T09:45:04.710Z,16.34
2022-09-17T09:45:59.361Z,16.23
2022-09-17T09:46:59.442Z,16.11
2022-09-17T09:47:59.342Z,15.86
2022-09-17T09:48:59.331Z,15.43
2022-09-17T09:49:59.312Z,15.12
2022-09-17T09:51:06.592Z,15.15
2022-09-17T09:52:00.283Z,15.35
2022-09-17T09:52:59.285Z,15.35
2022-09-17T09:53:59.266Z,15.27
2022-09-17T09:54:59.256Z,15.20
2022-09-17T09:55:59.237Z,15.38
2022-09-17T09:56:59.247Z,15.25
2022-09-17T09:57:59.218Z,15.22
2022-09-17T09:58:59.319Z,15.12
2022-09-17T09:59:59.186Z,15.16
2022-09-17T10:00:59.177Z,15.34
2022-09-17T10:01:59.229Z,15.41
2022-09-17T10:02:59.304Z,15.48
2022-09-17T10:03:59.139Z,15.49
2022-09-17T10:04:59.128Z,15.53
2022-09-17T10:05:59.112Z,15.43
2022-09-17T10:06:59.102Z,15.33
2022-09-17T10:07:59.080Z,15.37
2022-09-17T10:08:59.102Z,15.41
2022-09-17T10:09:59.061Z,15.25
2022-09-17T10:10:59.051Z,15.43
2022-09-17T10:11:59.033Z,15.53
2022-09-17T10:12:59.023Z,15.62
2022-09-17T10:13:59.005Z,15.78
2022-09-17T10:14:59.013Z,15.84
2022-09-17T10:15:59.002Z,15.91
2022-09-17T10:16:58.972Z,15.91
2022-09-17T10:17:58.955Z,16.07
2022-09-17T10:18:58.952Z,16.16
2022-09-17T10:19:58.936Z,16.06
2022-09-17T10:20:58.945Z,16.04
2022-09-17T10:21:58.905Z,15.71
2022-09-17T10:22:58.895Z,15.66
2022-09-17T10:23:58.876Z,15.66
2022-09-17T10:24:58.869Z,15.71
2022-09-17T10:25:58.856Z,15.70
2022-09-17T10:26:58.876Z,15.77
2022-09-17T10:27:58.827Z,15.92
2022-09-17T10:28:58.882Z,15.85
2022-09-17T10:29:58.797Z,15.60
2022-09-17T10:30:58.841Z,15.38
2022-09-17T10:31:58.875Z,15.31
2022-09-17T10:32:58.881Z,15.31
2022-09-17T10:33:58.759Z,15.41
2022-09-17T10:34:58.752Z,15.40
2022-09-17T10:35:58.722Z,15.46
2022-09-17T10:36:58.727Z,15.56
2022-09-17T10:37:58.700Z,15.64
2022-09-17T10:38:58.823Z,15.59
2022-09-17T10:39:58.716Z,15.53
2022-09-17T10:40:58.662Z,15.52
2022-09-17T10:41:58.652Z,15.53
2022-09-17T10:42:58.643Z,15.43
2022-09-17T10:43:58.834Z,15.23
2022-09-17T10:44:58.633Z,14.97
2022-09-17T10:45:58.614Z,14.82
2022-09-17T10:46:58.605Z,14.82
2022-09-17T10:47:58.574Z,14.83
2022-09-17T10:48:58.565Z,15.00
2022-09-17T10:49:58.545Z,15.03
2022-09-17T10:50:58.591Z,14.98
2022-09-17T10:51:58.524Z,15.03
2022-09-17T10:52:58.517Z,15.15
2022-09-17T10:53:58.501Z,15.16
2022-09-17T10:54:58.486Z,15.22
2022-09-17T10:55:58.468Z,15.30
2022-09-17T10:56:58.578Z,15.44
2022-09-17T10:57:58.448Z,15.33
2022-09-17T10:58:58.584Z,15.38
2022-09-17T10:59:58.419Z,15.33
2022-09-17T11:00:58.413Z,15.46
2022-09-17T11:01:58.483Z,15.74
2022-09-17T11:02:58.485Z,15.91
2022-09-17T11:03:58.371Z,15.80
2022-09-17T11:04:58.359Z,15.74
2022-09-17T11:05:58.353Z,15.70
2022-09-17T11:06:58.332Z,15.81
2022-09-17T11:07:58.312Z,15.70
2022-09-17T11:08:58.331Z,15.86
2022-09-17T11:09:58.294Z,15.98
2022-09-17T11:10:58.283Z,15.81
2022-09-17T11:11:58.272Z,15.95
2022-09-17T11:12:58.255Z,15.95
2022-09-17T11:13:58.301Z,15.92
2022-09-17T11:14:58.283Z,15.98
2022-09-17T11:15:58.237Z,16.25
2022-09-17T11:16:58.205Z,16.29
2022-09-17T11:17:58.186Z,16.08
2022-09-17T11:18:58.176Z,16.07
2022-09-17T11:19:58.174Z,15.56
2022-09-17T11:20:58.170Z,15.43
2022-09-17T11:21:58.138Z,15.37
2022-09-17T11:22:58.127Z,15.12
2022-09-17T11:23:58.117Z,14.86
2022-09-17T11:24:58.105Z,14.35
2022-09-17T11:26:00.654Z,14.17
2022-09-17T11:26:58.099Z,13.83
2022-09-17T11:27:58.061Z,13.57
2022-09-17T11:28:58.095Z,13.38
2022-09-17T11:29:58.045Z,13.03
2022-09-17T11:30:58.215Z,12.85
2022-09-17T11:31:58.286Z,12.67
2022-09-17T11:32:58.585Z,12.55
2022-09-17T11:33:58.164Z,12.51
2022-09-17T11:34:58.023Z,12.61
2022-09-17T11:35:58.003Z,12.74
2022-09-17T11:36:57.993Z,12.94
2022-09-17T11:38:00.088Z,12.94
2022-09-17T11:38:57.964Z,12.96
2022-09-17T11:39:57.969Z,12.98
2022-09-17T11:40:57.915Z,12.99
2022-09-17T11:41:57.936Z,13.19
2022-09-17T11:42:57.936Z,13.31
2022-09-17T11:43:57.966Z,13.44
2022-09-17T11:44:57.886Z,13.50
2022-09-17T11:45:57.844Z,13.73
2022-09-17T11:46:57.907Z,13.98
2022-09-17T11:47:57.814Z,14.20
2022-09-17T11:48:57.807Z,14.26
2022-09-17T11:49:57.788Z,14.29
2022-09-17T11:50:57.888Z,14.38
2022-09-17T11:51:57.760Z,14.54
2022-09-17T11:52:57.761Z,14.64
2022-09-17T11:53:57.743Z,14.90
2022-09-17T11:54:57.730Z,15.05
2022-09-17T11:55:57.710Z,15.04
2022-09-17T11:56:57.815Z,15.15
2022-09-17T11:57:57.693Z,15.13
2022-09-17T11:58:57.681Z,15.19
2022-09-17T11:59:57.661Z,15.25
2022-09-17T12:00:57.652Z,15.35
2022-09-17T12:01:57.654Z,15.28
2022-09-17T12:02:57.782Z,15.23
2022-09-17T12:03:57.621Z,15.05
2022-09-17T12:04:57.593Z,15.00
2022-09-17T12:05:57.583Z,14.95
2022-09-17T12:06:57.579Z,14.87
2022-09-17T12:07:57.565Z,14.78
2022-09-17T12:08:57.575Z,14.91
2022-09-17T12:09:57.545Z,14.93
2022-09-17T12:10:57.524Z,15.13
2022-09-17T12:11:57.506Z,15.27
2022-09-17T12:12:57.496Z,15.35
2022-09-17T12:13:57.486Z,15.49
2022-09-17T12:14:57.510Z,15.56
2022-09-17T12:15:57.486Z,15.71
2022-09-17T12:16:57.447Z,15.70
2022-09-17T12:18:20.548Z,15.66
2022-09-17T12:18:58.418Z,15.71
2022-09-17T12:19:57.417Z,15.76
2022-09-17T12:20:57.509Z,15.67
2022-09-17T12:21:57.389Z,15.60
2022-09-17T12:22:57.378Z,15.52
2022-09-17T12:23:57.400Z,15.52
2022-09-17T12:24:57.348Z,15.51
2022-09-17T12:25:57.330Z,15.49
2022-09-17T12:26:57.361Z,15.51
2022-09-17T12:27:57.312Z,15.56
2022-09-17T12:28:57.299Z,15.22
2022-09-17T12:30:00.436Z,15.37
2022-09-17T12:30:57.329Z,15.49
2022-09-17T12:31:57.253Z,15.56
2022-09-17T12:32:57.358Z,15.76
2022-09-17T12:33:57.235Z,15.84
2022-09-17T12:34:57.216Z,15.88
2022-09-17T12:36:04.502Z,15.77
2022-09-17T12:36:58.205Z,16.06
2022-09-17T12:37:57.213Z,16.22
2022-09-17T12:39:02.082Z,16.47
2022-09-17T12:39:58.240Z,16.62
2022-09-17T12:40:57.146Z,16.40
2022-09-17T12:41:57.135Z,16.36
2022-09-17T12:42:57.115Z,16.48
2022-09-17T12:43:57.115Z,16.07
2022-09-17T12:44:57.117Z,15.86
2022-09-17T12:45:57.079Z,15.62
2022-09-17T12:46:57.153Z,14.86
2022-09-17T12:47:57.050Z,13.12
2022-09-17T12:48:57.048Z,12.40
2022-09-17T12:49:57.030Z,12.07
2022-09-17T12:50:57.059Z,11.87
2022-09-17T12:51:57.002Z,11.70
2022-09-17T12:52:56.992Z,11.54
2022-09-17T12:53:56.979Z,11.48
2022-09-17T12:54:56.972Z,11.36
2022-09-17T12:55:56.951Z,11.33
2022-09-17T12:56:56.972Z,11.31
2022-09-17T12:57:56.964Z,11.13
2022-09-17T12:58:56.915Z,11.03
2022-09-17T12:59:56.903Z,10.99